sensor_id;sensor_type;location;lat;lon;timestamp;P1;durP1;ratioP1;P2;durP2;ratioP2
3002;SDS011;1511;51.326;12.344;2023-10-31T00:02:09;9.53;;;8.13;;
3002;SDS011;1511;51.326;12.344;2023-10-31T00:04:35;9.90;;;8.10;;
3002;SDS011;1511;51.326;12.344;2023-10-31T00:07:01;9.43;;;6.90;;
3002;SDS011;1511;51.326;12.344;2023-10-31T00:09:27;8.40;;;7.60;;
3002;SDS011;1511;51.326;12.344;2023-10-31T00:11:53;7.93;;;7.20;;
3002;SDS011;1511;51.326;12.344;2023-10-31T00:14:26;8.47;;;7.57;;
3002;SDS011;1511;51.326;12.344;2023-10-31T00:16:52;8.37;;;7.53;;
3002;SDS011;1511;51.326;12.344;2023-10-31T00:19:25;9.43;;;7.43;;
3002;SDS011;1511;51.326;12.344;2023-10-31T00:21:54;11.37;;;7.90;;
3002;SDS011;1511;51.326;12.344;2023-10-31T00:24:19;7.93;;;7.03;;
3002;SDS011;1511;51.326;12.344;2023-10-31T00:26:45;9.30;;;8.43;;
3002;SDS011;1511;51.326;12.344;2023-10-31T00:29:11;10.10;;;7.90;;
3002;SDS011;1511;51.326;12.344;2023-10-31T00:31:37;10.67;;;9.57;;
3002;SDS011;1511;51.326;12.344;2023-10-31T00:34:06;8.20;;;7.33;;
3002;SDS011;1511;51.326;12.344;2023-10-31T00:36:35;12.43;;;7.80;;
3002;SDS011;1511;51.326;12.344;2023-10-31T00:39:01;8.90;;;8.00;;
3002;SDS011;1511;51.326;12.344;2023-10-31T00:41:26;8.73;;;7.83;;
3002;SDS011;1511;51.326;12.344;2023-10-31T00:43:52;11.93;;;9.90;;
3002;SDS011;1511;51.326;12.344;2023-10-31T00:46:21;10.70;;;8.77;;
3002;SDS011;1511;51.326;12.344;2023-10-31T00:48:49;19.33;;;10.90;;
3002;SDS011;1511;51.326;12.344;2023-10-31T00:51:17;10.90;;;9.73;;
3002;SDS011;1511;51.326;12.344;2023-10-31T00:53:43;12.67;;;9.23;;
3002;SDS011;1511;51.326;12.344;2023-10-31T00:56:11;11.00;;;9.70;;
3002;SDS011;1511;51.326;12.344;2023-10-31T00:58:37;10.07;;;9.10;;
3002;SDS011;1511;51.326;12.344;2023-10-31T01:01:05;9.27;;;8.30;;
3002;SDS011;1511;51.326;12.344;2023-10-31T01:03:31;12.33;;;9.27;;
3002;SDS011;1511;51.326;12.344;2023-10-31T01:05:59;10.80;;;9.10;;
3002;SDS011;1511;51.326;12.344;2023-10-31T01:08:28;9.47;;;8.50;;
3002;SDS011;1511;51.326;12.344;2023-10-31T01:10:57;9.43;;;8.50;;
3002;SDS011;1511;51.326;12.344;2023-10-31T01:13:23;11.53;;;9.13;;
3002;SDS011;1511;51.326;12.344;2023-10-31T01:15:51;10.00;;;8.07;;
3002;SDS011;1511;51.326;12.344;2023-10-31T01:18:17;10.73;;;8.43;;
3002;SDS011;1511;51.326;12.344;2023-10-31T01:20:42;10.30;;;7.80;;
3002;SDS011;1511;51.326;12.344;2023-10-31T01:23:10;10.70;;;9.23;;
3002;SDS011;1511;51.326;12.344;2023-10-31T01:25:39;11.00;;;9.93;;
3002;SDS011;1511;51.326;12.344;2023-10-31T01:28:04;9.87;;;7.77;;
3002;SDS011;1511;51.326;12.344;2023-10-31T01:30:30;9.23;;;8.37;;
3002;SDS011;1511;51.326;12.344;2023-10-31T01:32:57;9.33;;;8.43;;
3002;SDS011;1511;51.326;12.344;2023-10-31T01:35:25;10.20;;;9.20;;
3002;SDS011;1511;51.326;12.344;2023-10-31T01:37:51;10.10;;;9.13;;
3002;SDS011;1511;51.326;12.344;2023-10-31T01:40:22;9.13;;;8.33;;
3002;SDS011;1511;51.326;12.344;2023-10-31T01:42:50;9.63;;;8.13;;
3002;SDS011;1511;51.326;12.344;2023-10-31T01:45:16;9.83;;;8.80;;
3002;SDS011;1511;51.326;12.344;2023-10-31T01:47:43;11.17;;;9.63;;
3002;SDS011;1511;51.326;12.344;2023-10-31T01:50:16;9.90;;;8.47;;
3002;SDS011;1511;51.326;12.344;2023-10-31T01:52:44;10.37;;;9.27;;
3002;SDS011;1511;51.326;12.344;2023-10-31T01:55:11;10.17;;;8.90;;
3002;SDS011;1511;51.326;12.344;2023-10-31T01:57:38;11.27;;;10.27;;
3002;SDS011;1511;51.326;12.344;2023-10-31T02:00:05;18.63;;;12.50;;
3002;SDS011;1511;51.326;12.344;2023-10-31T02:02:33;14.07;;;10.37;;
3002;SDS011;1511;51.326;12.344;2023-10-31T02:05:02;12.07;;;9.70;;
3002;SDS011;1511;51.326;12.344;2023-10-31T02:07:28;13.40;;;10.77;;
3002;SDS011;1511;51.326;12.344;2023-10-31T02:09:57;11.10;;;10.10;;
3002;SDS011;1511;51.326;12.344;2023-10-31T02:12:35;12.33;;;11.10;;
3002;SDS011;1511;51.326;12.344;2023-10-31T02:15:06;11.03;;;10.03;;
3002;SDS011;1511;51.326;12.344;2023-10-31T02:17:35;11.70;;;10.53;;
3002;SDS011;1511;51.326;12.344;2023-10-31T02:20:03;13.27;;;10.90;;
3002;SDS011;1511;51.326;12.344;2023-10-31T02:22:32;13.07;;;11.77;;
3002;SDS011;1511;51.326;12.344;2023-10-31T02:24:58;11.13;;;10.10;;
3002;SDS011;1511;51.326;12.344;2023-10-31T02:27:24;14.30;;;10.50;;
3002;SDS011;1511;51.326;12.344;2023-10-31T02:29:52;8.77;;;8.07;;
3002;SDS011;1511;51.326;12.344;2023-10-31T02:32:18;10.97;;;9.67;;
3002;SDS011;1511;51.326;12.344;2023-10-31T02:34:46;10.27;;;9.37;;
3002;SDS011;1511;51.326;12.344;2023-10-31T02:37:13;12.80;;;9.17;;
3002;SDS011;1511;51.326;12.344;2023-10-31T02:39:40;8.87;;;8.07;;
3002;SDS011;1511;51.326;12.344;2023-10-31T02:42:07;6.77;;;6.13;;
3002;SDS011;1511;51.326;12.344;2023-10-31T02:44:32;6.20;;;5.70;;
3002;SDS011;1511;51.326;12.344;2023-10-31T02:46:58;7.00;;;5.90;;
3002;SDS011;1511;51.326;12.344;2023-10-31T02:49:26;6.13;;;5.57;;
3002;SDS011;1511;51.326;12.344;2023-10-31T02:51:52;6.37;;;5.87;;
3002;SDS011;1511;51.326;12.344;2023-10-31T02:54:22;6.77;;;5.33;;
3002;SDS011;1511;51.326;12.344;2023-10-31T02:56:50;7.23;;;5.50;;
3002;SDS011;1511;51.326;12.344;2023-10-31T02:59:16;6.50;;;5.63;;
3002;SDS011;1511;51.326;12.344;2023-10-31T03:01:44;6.03;;;5.53;;
3002;SDS011;1511;51.326;12.344;2023-10-31T03:04:13;5.57;;;5.17;;
3002;SDS011;1511;51.326;12.344;2023-10-31T03:06:39;6.77;;;6.17;;
3002;SDS011;1511;51.326;12.344;2023-10-31T03:09:07;6.97;;;6.37;;
3002;SDS011;1511;51.326;12.344;2023-10-31T03:11:35;9.50;;;6.87;;
3002;SDS011;1511;51.326;12.344;2023-10-31T03:14:04;6.93;;;6.23;;
3002;SDS011;1511;51.326;12.344;2023-10-31T03:16:32;6.43;;;5.83;;
3002;SDS011;1511;51.326;12.344;2023-10-31T03:19:00;7.67;;;6.97;;
3002;SDS011;1511;51.326;12.344;2023-10-31T03:21:26;7.10;;;6.50;;
3002;SDS011;1511;51.326;12.344;2023-10-31T03:23:52;8.00;;;6.70;;
3002;SDS011;1511;51.326;12.344;2023-10-31T03:26:25;6.90;;;6.23;;
3002;SDS011;1511;51.326;12.344;2023-10-31T03:28:53;5.97;;;5.47;;
3002;SDS011;1511;51.326;12.344;2023-10-31T03:31:22;5.93;;;5.33;;
3002;SDS011;1511;51.326;12.344;2023-10-31T03:33:48;7.73;;;6.57;;
3002;SDS011;1511;51.326;12.344;2023-10-31T03:36:18;6.93;;;6.43;;
3002;SDS011;1511;51.326;12.344;2023-10-31T03:38:43;7.20;;;5.90;;
3002;SDS011;1511;51.326;12.344;2023-10-31T03:41:12;6.67;;;6.07;;
3002;SDS011;1511;51.326;12.344;2023-10-31T03:43:38;8.03;;;7.23;;
3002;SDS011;1511;51.326;12.344;2023-10-31T03:46:04;7.40;;;6.70;;
3002;SDS011;1511;51.326;12.344;2023-10-31T03:48:33;7.23;;;6.53;;
3002;SDS011;1511;51.326;12.344;2023-10-31T03:51:01;7.70;;;6.30;;
3002;SDS011;1511;51.326;12.344;2023-10-31T03:53:27;7.10;;;6.50;;
3002;SDS011;1511;51.326;12.344;2023-10-31T03:55:52;7.67;;;6.90;;
3002;SDS011;1511;51.326;12.344;2023-10-31T03:58:21;6.47;;;5.90;;
3002;SDS011;1511;51.326;12.344;2023-10-31T04:00:49;6.57;;;6.07;;
3002;SDS011;1511;51.326;12.344;2023-10-31T04:03:15;6.73;;;5.40;;
3002;SDS011;1511;51.326;12.344;2023-10-31T04:05:43;6.03;;;5.63;;
3002;SDS011;1511;51.326;12.344;2023-10-31T04:08:11;4.60;;;4.23;;
3002;SDS011;1511;51.326;12.344;2023-10-31T04:10:39;3.20;;;3.00;;
3002;SDS011;1511;51.326;12.344;2023-10-31T04:13:04;4.47;;;3.60;;
3002;SDS011;1511;51.326;12.344;2023-10-31T04:15:33;4.90;;;3.90;;
3002;SDS011;1511;51.326;12.344;2023-10-31T04:18:02;3.10;;;2.90;;
3002;SDS011;1511;51.326;12.344;2023-10-31T04:20:28;3.43;;;3.20;;
3002;SDS011;1511;51.326;12.344;2023-10-31T04:22:56;2.60;;;2.40;;
3002;SDS011;1511;51.326;12.344;2023-10-31T04:25:24;2.83;;;2.70;;
3002;SDS011;1511;51.326;12.344;2023-10-31T04:27:54;2.50;;;2.30;;
3002;SDS011;1511;51.326;12.344;2023-10-31T04:30:22;2.30;;;2.10;;
3002;SDS011;1511;51.326;12.344;2023-10-31T04:32:51;2.70;;;2.10;;
3002;SDS011;1511;51.326;12.344;2023-10-31T04:35:17;2.70;;;2.20;;
3002;SDS011;1511;51.326;12.344;2023-10-31T04:37:45;2.10;;;1.90;;
3002;SDS011;1511;51.326;12.344;2023-10-31T04:40:13;2.07;;;1.93;;
3002;SDS011;1511;51.326;12.344;2023-10-31T04:42:39;2.37;;;2.13;;
3002;SDS011;1511;51.326;12.344;2023-10-31T04:45:06;1.80;;;1.70;;
3002;SDS011;1511;51.326;12.344;2023-10-31T04:47:35;2.70;;;2.50;;
3002;SDS011;1511;51.326;12.344;2023-10-31T04:50:00;2.07;;;1.97;;
3002;SDS011;1511;51.326;12.344;2023-10-31T04:52:26;2.50;;;1.97;;
3002;SDS011;1511;51.326;12.344;2023-10-31T04:54:55;1.67;;;1.57;;
3002;SDS011;1511;51.326;12.344;2023-10-31T04:57:25;2.33;;;1.10;;
3002;SDS011;1511;51.326;12.344;2023-10-31T04:59:54;1.70;;;1.00;;
3002;SDS011;1511;51.326;12.344;2023-10-31T05:02:24;0.87;;;0.87;;
3002;SDS011;1511;51.326;12.344;2023-10-31T05:04:53;1.27;;;0.90;;
3002;SDS011;1511;51.326;12.344;2023-10-31T05:07:19;0.83;;;0.83;;
3002;SDS011;1511;51.326;12.344;2023-10-31T05:09:45;0.80;;;0.80;;
3002;SDS011;1511;51.326;12.344;2023-10-31T05:12:11;0.70;;;0.70;;
3002;SDS011;1511;51.326;12.344;2023-10-31T05:14:37;0.70;;;0.70;;
3002;SDS011;1511;51.326;12.344;2023-10-31T05:17:03;0.73;;;0.73;;
3002;SDS011;1511;51.326;12.344;2023-10-31T05:19:29;0.70;;;0.70;;
3002;SDS011;1511;51.326;12.344;2023-10-31T05:22:02;3.57;;;0.70;;
3002;SDS011;1511;51.326;12.344;2023-10-31T05:24:28;0.60;;;0.60;;
3002;SDS011;1511;51.326;12.344;2023-10-31T05:26:57;3.47;;;0.80;;
3002;SDS011;1511;51.326;12.344;2023-10-31T05:29:28;0.70;;;0.70;;
3002;SDS011;1511;51.326;12.344;2023-10-31T05:31:55;1.47;;;0.80;;
3002;SDS011;1511;51.326;12.344;2023-10-31T05:34:21;0.70;;;0.70;;
3002;SDS011;1511;51.326;12.344;2023-10-31T05:36:46;0.80;;;0.80;;
3002;SDS011;1511;51.326;12.344;2023-10-31T05:39:15;1.23;;;0.63;;
3002;SDS011;1511;51.326;12.344;2023-10-31T05:41:43;0.60;;;0.60;;
3002;SDS011;1511;51.326;12.344;2023-10-31T05:44:11;0.83;;;0.60;;
3002;SDS011;1511;51.326;12.344;2023-10-31T05:46:39;0.70;;;0.70;;
3002;SDS011;1511;51.326;12.344;2023-10-31T05:49:07;0.60;;;0.60;;
3002;SDS011;1511;51.326;12.344;2023-10-31T05:51:35;0.50;;;0.50;;
3002;SDS011;1511;51.326;12.344;2023-10-31T05:54:03;0.60;;;0.60;;
3002;SDS011;1511;51.326;12.344;2023-10-31T05:56:31;1.03;;;0.40;;
3002;SDS011;1511;51.326;12.344;2023-10-31T05:58:57;0.77;;;0.50;;
3002;SDS011;1511;51.326;12.344;2023-10-31T06:01:25;0.63;;;0.40;;
3002;SDS011;1511;51.326;12.344;2023-10-31T06:03:50;1.27;;;0.60;;
3002;SDS011;1511;51.326;12.344;2023-10-31T06:06:16;1.07;;;0.50;;
3002;SDS011;1511;51.326;12.344;2023-10-31T06:08:42;0.50;;;0.50;;
3002;SDS011;1511;51.326;12.344;2023-10-31T06:11:10;0.50;;;0.50;;
3002;SDS011;1511;51.326;12.344;2023-10-31T06:13:37;0.40;;;0.40;;
3002;SDS011;1511;51.326;12.344;2023-10-31T06:16:05;1.83;;;0.50;;
3002;SDS011;1511;51.326;12.344;2023-10-31T06:18:35;1.23;;;0.40;;
3002;SDS011;1511;51.326;12.344;2023-10-31T06:21:04;0.50;;;0.50;;
3002;SDS011;1511;51.326;12.344;2023-10-31T06:23:30;1.93;;;0.50;;
3002;SDS011;1511;51.326;12.344;2023-10-31T06:25:55;3.13;;;2.17;;
3002;SDS011;1511;51.326;12.344;2023-10-31T06:28:23;1.90;;;0.50;;
3002;SDS011;1511;51.326;12.344;2023-10-31T06:30:49;0.50;;;0.50;;
3002;SDS011;1511;51.326;12.344;2023-10-31T06:33:15;0.63;;;0.50;;
3002;SDS011;1511;51.326;12.344;2023-10-31T06:35:43;0.70;;;0.70;;
3002;SDS011;1511;51.326;12.344;2023-10-31T06:38:09;0.73;;;0.73;;
3002;SDS011;1511;51.326;12.344;2023-10-31T06:40:35;0.80;;;0.50;;
3002;SDS011;1511;51.326;12.344;2023-10-31T06:43:03;0.50;;;0.50;;
3002;SDS011;1511;51.326;12.344;2023-10-31T06:45:28;0.50;;;0.50;;
3002;SDS011;1511;51.326;12.344;2023-10-31T06:47:54;0.50;;;0.50;;
3002;SDS011;1511;51.326;12.344;2023-10-31T06:50:22;0.50;;;0.50;;
3002;SDS011;1511;51.326;12.344;2023-10-31T06:52:48;0.60;;;0.40;;
3002;SDS011;1511;51.326;12.344;2023-10-31T06:55:14;1.33;;;0.57;;
3002;SDS011;1511;51.326;12.344;2023-10-31T06:57:42;2.80;;;0.70;;
3002;SDS011;1511;51.326;12.344;2023-10-31T07:00:10;0.50;;;0.50;;
3002;SDS011;1511;51.326;12.344;2023-10-31T07:02:37;1.90;;;0.60;;
3002;SDS011;1511;51.326;12.344;2023-10-31T07:05:05;0.50;;;0.50;;
3002;SDS011;1511;51.326;12.344;2023-10-31T07:07:31;0.50;;;0.50;;
3002;SDS011;1511;51.326;12.344;2023-10-31T07:10:00;0.57;;;0.57;;
3002;SDS011;1511;51.326;12.344;2023-10-31T07:12:26;0.80;;;0.80;;
3002;SDS011;1511;51.326;12.344;2023-10-31T07:14:52;0.50;;;0.50;;
3002;SDS011;1511;51.326;12.344;2023-10-31T07:17:18;0.50;;;0.50;;
3002;SDS011;1511;51.326;12.344;2023-10-31T07:19:46;0.73;;;0.73;;
3002;SDS011;1511;51.326;12.344;2023-10-31T07:22:14;1.33;;;0.60;;
3002;SDS011;1511;51.326;12.344;2023-10-31T07:24:40;1.83;;;0.70;;
3002;SDS011;1511;51.326;12.344;2023-10-31T07:27:06;0.60;;;0.50;;
3002;SDS011;1511;51.326;12.344;2023-10-31T07:29:32;2.20;;;0.50;;
3002;SDS011;1511;51.326;12.344;2023-10-31T07:31:57;0.50;;;0.50;;
3002;SDS011;1511;51.326;12.344;2023-10-31T07:34:26;0.40;;;0.40;;
3002;SDS011;1511;51.326;12.344;2023-10-31T07:36:54;0.40;;;0.40;;
3002;SDS011;1511;51.326;12.344;2023-10-31T07:39:22;2.10;;;1.53;;
3002;SDS011;1511;51.326;12.344;2023-10-31T07:41:47;0.40;;;0.40;;
3002;SDS011;1511;51.326;12.344;2023-10-31T07:44:14;8.57;;;0.50;;
3002;SDS011;1511;51.326;12.344;2023-10-31T07:46:39;0.50;;;0.50;;
3002;SDS011;1511;51.326;12.344;2023-10-31T07:49:07;0.40;;;0.40;;
3002;SDS011;1511;51.326;12.344;2023-10-31T07:51:38;0.77;;;0.50;;
3002;SDS011;1511;51.326;12.344;2023-10-31T07:54:04;0.50;;;0.50;;
3002;SDS011;1511;51.326;12.344;2023-10-31T07:56:32;0.67;;;0.67;;
3002;SDS011;1511;51.326;12.344;2023-10-31T07:59:01;0.83;;;0.40;;
3002;SDS011;1511;51.326;12.344;2023-10-31T08:01:27;2.23;;;0.80;;
3002;SDS011;1511;51.326;12.344;2023-10-31T08:03:53;0.50;;;0.50;;
3002;SDS011;1511;51.326;12.344;2023-10-31T08:06:19;0.63;;;0.50;;
3002;SDS011;1511;51.326;12.344;2023-10-31T08:08:45;0.80;;;0.50;;
3002;SDS011;1511;51.326;12.344;2023-10-31T08:11:10;0.60;;;0.50;;
3002;SDS011;1511;51.326;12.344;2023-10-31T08:13:40;1.63;;;0.50;;
3002;SDS011;1511;51.326;12.344;2023-10-31T08:16:08;0.50;;;0.50;;
3002;SDS011;1511;51.326;12.344;2023-10-31T08:18:34;0.60;;;0.60;;
3002;SDS011;1511;51.326;12.344;2023-10-31T08:21:03;0.40;;;0.40;;
3002;SDS011;1511;51.326;12.344;2023-10-31T08:23:34;0.40;;;0.40;;
3002;SDS011;1511;51.326;12.344;2023-10-31T08:26:01;0.43;;;0.40;;
3002;SDS011;1511;51.326;12.344;2023-10-31T08:28:27;3.43;;;0.40;;
3002;SDS011;1511;51.326;12.344;2023-10-31T08:30:53;0.93;;;0.57;;
3002;SDS011;1511;51.326;12.344;2023-10-31T08:33:22;0.40;;;0.40;;
3002;SDS011;1511;51.326;12.344;2023-10-31T08:35:48;0.50;;;0.50;;
3002;SDS011;1511;51.326;12.344;2023-10-31T08:38:14;0.63;;;0.60;;
3002;SDS011;1511;51.326;12.344;2023-10-31T08:40:40;0.40;;;0.40;;
3002;SDS011;1511;51.326;12.344;2023-10-31T08:43:07;0.40;;;0.40;;
3002;SDS011;1511;51.326;12.344;2023-10-31T08:45:34;0.70;;;0.60;;
3002;SDS011;1511;51.326;12.344;2023-10-31T08:48:00;1.57;;;0.47;;
3002;SDS011;1511;51.326;12.344;2023-10-31T08:50:26;0.40;;;0.40;;
3002;SDS011;1511;51.326;12.344;2023-10-31T08:52:56;0.50;;;0.50;;
3002;SDS011;1511;51.326;12.344;2023-10-31T08:55:22;0.43;;;0.40;;
3002;SDS011;1511;51.326;12.344;2023-10-31T08:57:48;3.63;;;0.40;;
3002;SDS011;1511;51.326;12.344;2023-10-31T09:00:14;0.40;;;0.40;;
3002;SDS011;1511;51.326;12.344;2023-10-31T09:02:43;0.40;;;0.40;;
3002;SDS011;1511;51.326;12.344;2023-10-31T09:05:09;1.17;;;0.40;;
3002;SDS011;1511;51.326;12.344;2023-10-31T09:07:35;1.13;;;0.40;;
3002;SDS011;1511;51.326;12.344;2023-10-31T09:10:03;0.40;;;0.40;;
3002;SDS011;1511;51.326;12.344;2023-10-31T09:12:32;1.93;;;0.40;;
3002;SDS011;1511;51.326;12.344;2023-10-31T09:14:58;0.30;;;0.30;;
3002;SDS011;1511;51.326;12.344;2023-10-31T09:17:24;0.77;;;0.40;;
3002;SDS011;1511;51.326;12.344;2023-10-31T09:19:52;2.33;;;0.50;;
3002;SDS011;1511;51.326;12.344;2023-10-31T09:22:20;2.47;;;0.40;;
3002;SDS011;1511;51.326;12.344;2023-10-31T09:24:46;1.00;;;0.50;;
3002;SDS011;1511;51.326;12.344;2023-10-31T09:27:14;1.63;;;0.47;;
3002;SDS011;1511;51.326;12.344;2023-10-31T09:29:42;1.40;;;0.50;;
3002;SDS011;1511;51.326;12.344;2023-10-31T09:32:08;3.77;;;0.53;;
3002;SDS011;1511;51.326;12.344;2023-10-31T09:34:34;0.80;;;0.50;;
3002;SDS011;1511;51.326;12.344;2023-10-31T09:37:00;1.03;;;0.40;;
3002;SDS011;1511;51.326;12.344;2023-10-31T09:39:25;1.03;;;0.40;;
3002;SDS011;1511;51.326;12.344;2023-10-31T09:41:52;2.10;;;0.50;;
3002;SDS011;1511;51.326;12.344;2023-10-31T09:44:18;4.20;;;0.40;;
3002;SDS011;1511;51.326;12.344;2023-10-31T09:46:47;0.50;;;0.40;;
3002;SDS011;1511;51.326;12.344;2023-10-31T09:49:13;4.90;;;0.50;;
3002;SDS011;1511;51.326;12.344;2023-10-31T09:51:40;1.67;;;1.57;;
3002;SDS011;1511;51.326;12.344;2023-10-31T09:54:11;0.80;;;0.50;;
3002;SDS011;1511;51.326;12.344;2023-10-31T09:56:40;0.30;;;0.30;;
3002;SDS011;1511;51.326;12.344;2023-10-31T09:59:08;0.60;;;0.40;;
3002;SDS011;1511;51.326;12.344;2023-10-31T10:01:37;0.47;;;0.47;;
3002;SDS011;1511;51.326;12.344;2023-10-31T10:04:03;0.40;;;0.40;;
3002;SDS011;1511;51.326;12.344;2023-10-31T10:06:32;1.60;;;0.30;;
3002;SDS011;1511;51.326;12.344;2023-10-31T10:08:59;6.13;;;0.53;;
3002;SDS011;1511;51.326;12.344;2023-10-31T10:11:29;1.20;;;0.40;;
3002;SDS011;1511;51.326;12.344;2023-10-31T10:13:56;0.40;;;0.37;;
3002;SDS011;1511;51.326;12.344;2023-10-31T10:16:32;0.50;;;0.40;;
3002;SDS011;1511;51.326;12.344;2023-10-31T10:19:31;0.70;;;0.50;;
3002;SDS011;1511;51.326;12.344;2023-10-31T10:24:24;0.40;;;0.40;;
3002;SDS011;1511;51.326;12.344;2023-10-31T10:26:50;1.90;;;0.37;;
3002;SDS011;1511;51.326;12.344;2023-10-31T10:29:17;0.47;;;0.47;;
3002;SDS011;1511;51.326;12.344;2023-10-31T10:31:43;3.60;;;0.50;;
3002;SDS011;1511;51.326;12.344;2023-10-31T10:34:15;0.67;;;0.67;;
3002;SDS011;1511;51.326;12.344;2023-10-31T10:36:41;0.40;;;0.40;;
3002;SDS011;1511;51.326;12.344;2023-10-31T10:39:20;0.47;;;0.47;;
3002;SDS011;1511;51.326;12.344;2023-10-31T10:41:52;3.57;;;0.80;;
3002;SDS011;1511;51.326;12.344;2023-10-31T10:44:34;0.43;;;0.40;;
3002;SDS011;1511;51.326;12.344;2023-10-31T10:47:08;0.40;;;0.40;;
3002;SDS011;1511;51.326;12.344;2023-10-31T10:49:41;0.40;;;0.40;;
3002;SDS011;1511;51.326;12.344;2023-10-31T10:57:48;0.40;;;0.40;;
3002;SDS011;1511;51.326;12.344;2023-10-31T11:00:37;1.73;;;0.40;;
3002;SDS011;1511;51.326;12.344;2023-10-31T11:03:05;0.50;;;0.40;;
3002;SDS011;1511;51.326;12.344;2023-10-31T11:05:35;0.70;;;0.43;;
3002;SDS011;1511;51.326;12.344;2023-10-31T11:08:01;0.30;;;0.30;;
3002;SDS011;1511;51.326;12.344;2023-10-31T11:10:35;0.40;;;0.40;;
3002;SDS011;1511;51.326;12.344;2023-10-31T11:13:03;0.40;;;0.40;;
3002;SDS011;1511;51.326;12.344;2023-10-31T11:15:28;1.60;;;0.40;;
3002;SDS011;1511;51.326;12.344;2023-10-31T11:17:57;2.53;;;1.10;;
3002;SDS011;1511;51.326;12.344;2023-10-31T11:20:25;0.40;;;0.40;;
3002;SDS011;1511;51.326;12.344;2023-10-31T11:22:55;0.50;;;0.43;;
3002;SDS011;1511;51.326;12.344;2023-10-31T11:25:29;1.10;;;0.70;;
3002;SDS011;1511;51.326;12.344;2023-10-31T11:27:57;0.40;;;0.40;;
3002;SDS011;1511;51.326;12.344;2023-10-31T11:30:42;0.60;;;0.60;;
3002;SDS011;1511;51.326;12.344;2023-10-31T11:33:15;1.13;;;0.50;;
3002;SDS011;1511;51.326;12.344;2023-10-31T11:35:49;0.40;;;0.40;;
3002;SDS011;1511;51.326;12.344;2023-10-31T11:38:16;0.80;;;0.70;;
3002;SDS011;1511;51.326;12.344;2023-10-31T11:40:59;0.70;;;0.40;;
3002;SDS011;1511;51.326;12.344;2023-10-31T11:46:04;0.40;;;0.40;;
3002;SDS011;1511;51.326;12.344;2023-10-31T11:48:50;0.60;;;0.40;;
3002;SDS011;1511;51.326;12.344;2023-10-31T11:51:23;0.60;;;0.40;;
3002;SDS011;1511;51.326;12.344;2023-10-31T11:53:49;0.40;;;0.40;;
3002;SDS011;1511;51.326;12.344;2023-10-31T11:56:15;0.87;;;0.50;;
3002;SDS011;1511;51.326;12.344;2023-10-31T11:58:44;0.43;;;0.43;;
3002;SDS011;1511;51.326;12.344;2023-10-31T12:01:20;0.50;;;0.50;;
3002;SDS011;1511;51.326;12.344;2023-10-31T12:03:48;0.83;;;0.43;;
3002;SDS011;1511;51.326;12.344;2023-10-31T12:06:15;1.47;;;0.50;;
3002;SDS011;1511;51.326;12.344;2023-10-31T12:08:43;0.93;;;0.50;;
3002;SDS011;1511;51.326;12.344;2023-10-31T12:11:12;0.67;;;0.67;;
3002;SDS011;1511;51.326;12.344;2023-10-31T12:14:02;6.77;;;0.70;;
3002;SDS011;1511;51.326;12.344;2023-10-31T12:16:30;1.10;;;0.60;;
3002;SDS011;1511;51.326;12.344;2023-10-31T12:24:21;1.67;;;0.60;;
3002;SDS011;1511;51.326;12.344;2023-10-31T12:26:47;0.50;;;0.50;;
3002;SDS011;1511;51.326;12.344;2023-10-31T12:29:20;0.50;;;0.50;;
3002;SDS011;1511;51.326;12.344;2023-10-31T12:34:23;0.43;;;0.43;;
3002;SDS011;1511;51.326;12.344;2023-10-31T12:36:50;0.50;;;0.40;;
3002;SDS011;1511;51.326;12.344;2023-10-31T12:39:19;1.23;;;0.50;;
3002;SDS011;1511;51.326;12.344;2023-10-31T12:41:49;0.90;;;0.40;;
3002;SDS011;1511;51.326;12.344;2023-10-31T12:44:21;1.30;;;0.53;;
3002;SDS011;1511;51.326;12.344;2023-10-31T12:46:54;0.90;;;0.60;;
3002;SDS011;1511;51.326;12.344;2023-10-31T12:49:20;0.40;;;0.40;;
3002;SDS011;1511;51.326;12.344;2023-10-31T12:51:59;1.60;;;0.50;;
3002;SDS011;1511;51.326;12.344;2023-10-31T12:54:36;0.40;;;0.40;;
3002;SDS011;1511;51.326;12.344;2023-10-31T12:57:08;1.47;;;0.43;;
3002;SDS011;1511;51.326;12.344;2023-10-31T12:59:37;0.50;;;0.50;;
3002;SDS011;1511;51.326;12.344;2023-10-31T13:02:04;2.00;;;0.63;;
3002;SDS011;1511;51.326;12.344;2023-10-31T13:04:31;0.40;;;0.40;;
3002;SDS011;1511;51.326;12.344;2023-10-31T13:07:04;0.50;;;0.50;;
3002;SDS011;1511;51.326;12.344;2023-10-31T13:09:33;0.90;;;0.50;;
3002;SDS011;1511;51.326;12.344;2023-10-31T13:12:06;1.37;;;1.03;;
3002;SDS011;1511;51.326;12.344;2023-10-31T13:14:33;0.47;;;0.47;;
3002;SDS011;1511;51.326;12.344;2023-10-31T13:17:00;0.40;;;0.40;;
3002;SDS011;1511;51.326;12.344;2023-10-31T13:19:27;0.40;;;0.40;;
3002;SDS011;1511;51.326;12.344;2023-10-31T13:21:53;0.60;;;0.40;;
3002;SDS011;1511;51.326;12.344;2023-10-31T13:24:19;0.50;;;0.50;;
3002;SDS011;1511;51.326;12.344;2023-10-31T13:26:44;0.57;;;0.50;;
3002;SDS011;1511;51.326;12.344;2023-10-31T13:29:16;0.40;;;0.40;;
3002;SDS011;1511;51.326;12.344;2023-10-31T13:31:46;0.50;;;0.50;;
3002;SDS011;1511;51.326;12.344;2023-10-31T13:34:11;2.70;;;0.70;;
3002;SDS011;1511;51.326;12.344;2023-10-31T13:36:39;1.13;;;0.50;;
3002;SDS011;1511;51.326;12.344;2023-10-31T13:39:08;0.93;;;0.50;;
3002;SDS011;1511;51.326;12.344;2023-10-31T13:41:34;0.47;;;0.47;;
3002;SDS011;1511;51.326;12.344;2023-10-31T13:44:03;1.43;;;0.63;;
3002;SDS011;1511;51.326;12.344;2023-10-31T13:46:31;0.70;;;0.70;;
3002;SDS011;1511;51.326;12.344;2023-10-31T13:48:57;0.40;;;0.40;;
3002;SDS011;1511;51.326;12.344;2023-10-31T13:51:25;0.60;;;0.60;;
3002;SDS011;1511;51.326;12.344;2023-10-31T13:53:50;0.50;;;0.50;;
3002;SDS011;1511;51.326;12.344;2023-10-31T13:56:19;0.63;;;0.60;;
3002;SDS011;1511;51.326;12.344;2023-10-31T13:58:47;0.40;;;0.40;;
3002;SDS011;1511;51.326;12.344;2023-10-31T14:01:17;1.03;;;0.60;;
3002;SDS011;1511;51.326;12.344;2023-10-31T14:03:49;0.60;;;0.60;;
3002;SDS011;1511;51.326;12.344;2023-10-31T14:06:15;0.60;;;0.60;;
3002;SDS011;1511;51.326;12.344;2023-10-31T14:08:42;0.50;;;0.50;;
3002;SDS011;1511;51.326;12.344;2023-10-31T14:11:08;1.30;;;0.50;;
3002;SDS011;1511;51.326;12.344;2023-10-31T14:13:35;1.03;;;0.53;;
3002;SDS011;1511;51.326;12.344;2023-10-31T14:16:01;1.43;;;0.60;;
3002;SDS011;1511;51.326;12.344;2023-10-31T14:18:30;0.50;;;0.50;;
3002;SDS011;1511;51.326;12.344;2023-10-31T14:20:56;0.80;;;0.50;;
3002;SDS011;1511;51.326;12.344;2023-10-31T14:23:22;0.93;;;0.50;;
3002;SDS011;1511;51.326;12.344;2023-10-31T14:25:47;5.53;;;5.03;;
3002;SDS011;1511;51.326;12.344;2023-10-31T14:28:13;0.73;;;0.73;;
3002;SDS011;1511;51.326;12.344;2023-10-31T14:30:41;0.53;;;0.50;;
3002;SDS011;1511;51.326;12.344;2023-10-31T14:33:07;0.50;;;0.50;;
3002;SDS011;1511;51.326;12.344;2023-10-31T14:35:35;0.80;;;0.40;;
3002;SDS011;1511;51.326;12.344;2023-10-31T14:38:01;1.10;;;0.60;;
3002;SDS011;1511;51.326;12.344;2023-10-31T14:40:26;0.90;;;0.50;;
3002;SDS011;1511;51.326;12.344;2023-10-31T14:42:52;0.60;;;0.60;;
3002;SDS011;1511;51.326;12.344;2023-10-31T14:45:18;0.60;;;0.60;;
3002;SDS011;1511;51.326;12.344;2023-10-31T14:47:43;0.60;;;0.60;;
3002;SDS011;1511;51.326;12.344;2023-10-31T14:50:09;1.17;;;0.60;;
3002;SDS011;1511;51.326;12.344;2023-10-31T14:52:35;0.60;;;0.60;;
3002;SDS011;1511;51.326;12.344;2023-10-31T14:55:01;1.27;;;0.50;;
3002;SDS011;1511;51.326;12.344;2023-10-31T14:57:26;2.63;;;0.50;;
3002;SDS011;1511;51.326;12.344;2023-10-31T14:59:54;0.70;;;0.70;;
3002;SDS011;1511;51.326;12.344;2023-10-31T15:02:22;3.00;;;0.83;;
3002;SDS011;1511;51.326;12.344;2023-10-31T15:04:48;3.80;;;0.70;;
3002;SDS011;1511;51.326;12.344;2023-10-31T15:07:13;0.60;;;0.50;;
3002;SDS011;1511;51.326;12.344;2023-10-31T15:09:40;0.90;;;0.63;;
3002;SDS011;1511;51.326;12.344;2023-10-31T15:12:06;0.50;;;0.50;;
3002;SDS011;1511;51.326;12.344;2023-10-31T15:14:32;0.77;;;0.77;;
3002;SDS011;1511;51.326;12.344;2023-10-31T15:17:00;0.63;;;0.60;;
3002;SDS011;1511;51.326;12.344;2023-10-31T15:19:28;0.60;;;0.60;;
3002;SDS011;1511;51.326;12.344;2023-10-31T15:21:54;1.33;;;1.23;;
3002;SDS011;1511;51.326;12.344;2023-10-31T15:24:20;1.03;;;0.70;;